Time;durP1;ratioP1;P1;durP2;ratioP2;P2;SDS_P1;SDS_P2;PMS_P1;PMS_P2;Temp;Humidity;BMP_temperature;BMP_pressure;BME280_temperature;BME280_humidity;BME280_pressure;Samples;Min_cycle;Max_cycle;Signal;HPM_P1;HPM_P2
2020/12/05 00:00:23;;;;;;;67.47;29.90;;;;;;;-1.55;100.00;93504.03;1037617;28;20054;-74
2020/12/05 00:00:54;;;;;;;62.65;30.13;;;;;;;-1.50;100.00;93504.38;1028899;28;20278;-74
2020/12/05 00:01:25;;;;;;;65.55;29.48;;;;;;;-1.49;100.00;93492.19;1041436;28;20049;-75
2020/12/05 00:01:56;;;;;;;58.58;28.60;;;;;;;-1.46;100.00;93497.88;1033508;28;20434;-75
2020/12/05 00:02:27;;;;;;;60.70;29.55;;;;;;;-1.47;100.00;93492.84;1037539;28;20257;-74
2020/12/05 00:02:58;;;;;;;66.45;29.73;;;;;;;-1.53;100.00;93482.09;1040970;28;20025;-74
2020/12/05 00:03:29;;;;;;;62.92;29.77;;;;;;;-1.52;100.00;93488.91;1033239;28;20491;-75
2020/12/05 00:03:59;;;;;;;59.28;29.58;;;;;;;-1.55;100.00;93489.25;1041273;28;20026;-75
2020/12/05 00:04:30;;;;;;;61.13;29.60;;;;;;;-1.66;100.00;93468.75;1029371;28;20065;-75
2020/12/05 00:05:01;;;;;;;61.90;30.95;;;;;;;-1.62;100.00;93490.06;1037603;28;20032;-74
2020/12/05 00:05:32;;;;;;;60.72;29.02;;;;;;;-1.74;100.00;93480.00;1033636;28;20101;-74
2020/12/05 00:06:02;;;;;;;59.03;28.77;;;;;;;-1.68;100.00;93480.31;1037522;28;20045;-75
2020/12/05 00:06:33;;;;;;;58.65;30.15;;;;;;;-1.71;100.00;93471.03;1037319;28;20037;-74
2020/12/05 00:07:04;;;;;;;65.53;30.95;;;;;;;-1.66;100.00;93481.78;1033753;28;20034;-74
2020/12/05 00:07:35;;;;;;;65.55;29.27;;;;;;;-1.67;100.00;93476.72;1033459;28;20109;-75
2020/12/05 00:08:05;;;;;;;63.75;29.70;;;;;;;-1.66;100.00;93478.38;1037487;28;20025;-75
2020/12/05 00:08:36;;;;;;;64.47;30.77;;;;;;;-1.76;100.00;93473.31;1033361;28;20027;-73
2020/12/05 00:09:07;;;;;;;69.30;30.10;;;;;;;-1.74;100.00;93484.41;1033666;28;20029;-74
2020/12/05 00:09:38;;;;;;;65.20;30.40;;;;;;;-1.81;100.00;93480.78;1041494;28;20025;-75
2020/12/05 00:10:09;;;;;;;69.85;31.00;;;;;;;-1.88;100.00;93467.66;1045654;28;20075;-74
2020/12/05 00:10:40;;;;;;;65.30;31.42;;;;;;;-1.82;100.00;93473.97;1037234;28;20029;-75
2020/12/05 00:11:11;;;;;;;71.38;31.30;;;;;;;-1.88;100.00;93464.22;1041110;28;20060;-74
2020/12/05 00:11:42;;;;;;;67.93;32.55;;;;;;;-1.84;100.00;93468.13;1037209;28;20101;-74
2020/12/05 00:12:16;;;;;;;62.83;30.00;;;;;;;-1.83;100.00;93472.34;1037372;28;20061;-75
2020/12/05 00:12:46;;;;;;;70.85;31.83;;;;;;;-2.02;100.00;93447.47;1033201;28;20526;-74
2020/12/05 00:13:17;;;;;;;68.05;30.73;;;;;;;-1.84;100.00;93474.13;1041742;28;20271;-74
2020/12/05 00:13:49;;;;;;;66.78;32.08;;;;;;;-1.84;100.00;93474.13;1029553;28;20019;-75
2020/12/05 00:14:20;;;;;;;67.75;30.83;;;;;;;-1.81;100.00;93476.41;1029572;28;20042;-75
2020/12/05 00:14:51;;;;;;;69.70;31.10;;;;;;;-1.79;100.00;93477.06;1037101;28;20708;-74
2020/12/05 00:15:21;;;;;;;63.78;30.63;;;;;;;-1.80;100.00;93467.63;1037470;28;20018;-74
2020/12/05 00:15:52;;;;;;;66.18;31.85;;;;;;;-1.91;100.00;93437.56;1033287;28;20026;-75
2020/12/05 00:16:23;;;;;;;70.32;32.22;;;;;;;-1.82;100.00;93448.78;1041473;28;20113;-74
2020/12/05 00:16:54;;;;;;;62.72;31.30;;;;;;;-1.99;100.00;93423.75;1033208;28;20030;-74
2020/12/05 00:17:24;;;;;;;68.53;30.20;;;;;;;-1.96;100.00;93434.63;1037300;28;20105;-74
2020/12/05 00:17:55;;;;;;;66.85;31.30;;;;;;;-2.01;100.00;93430.91;1033384;28;20086;-75
2020/12/05 00:18:26;;;;;;;71.57;31.50;;;;;;;-2.11;100.00;93424.09;1033389;28;20015;-75
2020/12/05 00:18:57;;;;;;;65.35;30.65;;;;;;;-2.11;100.00;93433.66;1037225;28;20013;-74
2020/12/05 00:19:28;;;;;;;71.07;32.42;;;;;;;-2.09;100.00;93453.31;1033275;28;20014;-75
2020/12/05 00:19:59;;;;;;;67.40;31.17;;;;;;;-2.20;100.00;93471.00;1033619;28;20025;-74
2020/12/05 00:20:30;;;;;;;66.15;29.65;;;;;;;-2.23;100.00;93479.13;1037619;28;20025;-74
2020/12/05 00:21:01;;;;;;;67.45;30.92;;;;;;;-2.24;100.00;93483.53;1037421;28;20272;-74
2020/12/05 00:21:32;;;;;;;68.50;31.02;;;;;;;-2.30;100.00;93471.16;1045814;28;20029;-74
2020/12/05 00:22:03;;;;;;;73.57;32.83;;;;;;;-2.24;100.00;93488.72;1033610;28;20030;-75
2020/12/05 00:22:34;;;;;;;76.03;33.88;;;;;;;-2.21;100.00;93475.41;1037530;28;20030;-74
2020/12/05 00:23:04;;;;;;;71.68;31.70;;;;;;;-2.16;100.00;93482.72;1037967;28;20025;-74
2020/12/05 00:23:35;;;;;;;73.25;32.90;;;;;;;-2.14;100.00;93481.59;1025849;29;20027;-74
2020/12/05 00:24:06;;;;;;;69.63;33.95;;;;;;;-2.09;100.00;93486.28;1037604;28;20553;-74
2020/12/05 00:24:36;;;;;;;66.93;31.40;;;;;;;-2.06;100.00;93490.38;1028982;28;20027;-74
2020/12/05 00:25:07;;;;;;;65.95;30.70;;;;;;;-2.05;100.00;93489.41;1032927;28;20022;-74
2020/12/05 00:25:38;;;;;;;70.30;32.45;;;;;;;-2.09;100.00;93481.94;1029285;28;20022;-75
2020/12/05 00:26:13;;;;;;;64.57;30.13;;;;;;;-2.01;100.00;93494.09;1037261;28;20056;-74
2020/12/05 00:26:48;;;;;;;66.15;29.92;;;;;;;-2.02;100.00;93489.06;1032894;28;20261;-74
2020/12/05 00:27:20;;;;;;;65.68;30.65;;;;;;;-2.00;100.00;93498.34;1037277;28;20260;-74
2020/12/05 00:27:51;;;;;;;68.10;31.10;;;;;;;-1.98;100.00;93496.41;1033198;28;20292;-74
2020/12/05 00:28:22;;;;;;;70.10;32.17;;;;;;;-2.06;100.00;93472.16;1029290;28;20292;-74
2020/12/05 00:28:53;;;;;;;66.75;30.88;;;;;;;-1.97;100.00;93482.44;1037090;28;20030;-74
2020/12/05 00:29:24;;;;;;;71.25;32.83;;;;;;;-2.00;100.00;93459.34;1033578;28;20019;-75
2020/12/05 00:29:55;;;;;;;68.55;32.22;;;;;;;-1.94;100.00;93465.69;1037284;28;20286;-75
2020/12/05 00:30:28;;;;;;;64.00;31.52;;;;;;;-1.96;100.00;93455.44;1029236;28;20022;-75
2020/12/05 00:30:59;;;;;;;69.65;32.25;;;;;;;-1.94;100.00;93448.28;1036844;28;20018;-74
2020/12/05 00:31:30;;;;;;;62.53;31.83;;;;;;;-1.93;100.00;93446.50;1036906;28;20265;-75
2020/12/05 00:32:01;;;;;;;63.47;31.70;;;;;;;-1.92;100.00;93435.13;1033383;28;20030;-75
2020/12/05 00:32:31;;;;;;;68.38;31.02;;;;;;;-1.94;100.00;93431.88;1037120;28;20022;-74
2020/12/05 00:33:02;;;;;;;68.70;31.90;;;;;;;-2.03;100.00;93433.66;1032942;28;20265;-74
2020/12/05 00:33:34;;;;;;;68.63;30.40;;;;;;;-2.05;100.00;93440.00;1032356;28;20109;-75
2020/12/05 00:34:05;;;;;;;66.85;30.73;;;;;;;-2.07;100.00;93445.38;1036793;28;20072;-75
2020/12/05 00:34:36;;;;;;;69.28;32.38;;;;;;;-2.09;100.00;93435.13;1028914;28;20293;-74
2020/12/05 00:35:07;;;;;;;70.60;33.78;;;;;;;-2.06;100.00;93433.97;1037116;28;20021;-74
2020/12/05 00:35:37;;;;;;;72.05;33.65;;;;;;;-2.17;100.00;93419.50;1037111;28;20213;-75
2020/12/05 00:36:09;;;;;;;70.15;31.63;;;;;;;-2.03;100.00;93435.47;1041378;28;20296;-75
2020/12/05 00:36:40;;;;;;;68.25;32.22;;;;;;;-2.02;100.00;93426.66;1041115;28;20025;-74
2020/12/05 00:37:11;;;;;;;74.57;33.53;;;;;;;-2.04;100.00;93426.03;1029066;28;20369;-74
2020/12/05 00:37:42;;;;;;;69.80;32.65;;;;;;;-2.08;100.00;93428.13;1029113;28;20266;-75
2020/12/05 00:38:13;;;;;;;68.38;32.20;;;;;;;-2.15;100.00;93411.56;1036968;28;20112;-75
2020/12/05 00:38:44;;;;;;;74.32;32.97;;;;;;;-2.12;100.00;93417.25;1041235;28;20029;-74
2020/12/05 00:39:15;;;;;;;70.20;31.98;;;;;;;-2.04;100.00;93418.22;1033073;28;20117;-74
2020/12/05 00:39:46;;;;;;;67.68;32.88;;;;;;;-2.19;100.00;93398.06;1045347;28;20240;-75
2020/12/05 00:40:17;;;;;;;75.63;33.33;;;;;;;-2.15;100.00;93420.16;1037150;28;20026;-74
2020/12/05 00:40:48;;;;;;;73.55;32.92;;;;;;;-2.18;100.00;93417.88;1044829;28;20079;-74
2020/12/05 00:41:18;;;;;;;65.13;30.88;;;;;;;-2.15;100.00;93425.34;1041125;28;20116;-74
2020/12/05 00:41:52;;;;;;;69.10;32.05;;;;;;;-2.26;100.00;93420.50;1029177;28;20027;-74
2020/12/05 00:42:24;;;;;;;71.63;32.45;;;;;;;-2.20;100.00;93438.03;1037006;28;20022;-75
2020/12/05 00:42:55;;;;;;;67.07;31.95;;;;;;;-2.22;100.00;93452.97;1032565;28;20274;-74
2020/12/05 00:43:26;;;;;;;66.53;30.73;;;;;;;-2.36;100.00;93446.63;1028802;28;20274;-74
2020/12/05 00:43:56;;;;;;;66.85;30.45;;;;;;;-2.21;100.00;93478.00;1040987;28;20018;-75
2020/12/05 00:44:27;;;;;;;70.50;31.88;;;;;;;-2.55;100.00;93432.13;1037088;28;20481;-75
2020/12/05 00:44:58;;;;;;;70.03;31.35;;;;;;;-2.25;100.00;93474.09;1032615;28;20414;-74
2020/12/05 00:45:29;;;;;;;64.65;30.90;;;;;;;-2.27;100.00;93471.63;1037097;28;20053;-75
2020/12/05 00:46:02;;;;;;;62.45;29.75;;;;;;;-2.22;100.00;93484.16;1033043;28;20054;-74
2020/12/05 00:46:33;;;;;;;64.80;30.80;;;;;;;-2.20;100.00;93482.22;1041135;28;20088;-74
2020/12/05 00:47:04;;;;;;;74.88;33.63;;;;;;;-2.42;100.00;93462.88;1032926;28;20272;-74
2020/12/05 00:47:35;;;;;;;71.45;32.70;;;;;;;-2.41;100.00;93474.06;1033128;28;20018;-75
2020/12/05 00:48:05;;;;;;;71.28;32.17;;;;;;;-2.38;100.00;93468.56;1036860;28;20097;-75
2020/12/05 00:48:36;;;;;;;72.20;32.78;;;;;;;-2.56;100.00;93443.50;1041099;28;20191;-74
2020/12/05 00:49:07;;;;;;;68.25;32.45;;;;;;;-2.41;100.00;93455.88;1037041;28;20179;-75
2020/12/05 00:49:38;;;;;;;73.75;33.88;;;;;;;-2.29;100.00;93465.78;1032933;28;20040;-75
2020/12/05 00:50:09;;;;;;;73.20;32.33;;;;;;;-2.28;100.00;93464.84;1032826;28;20390;-75
2020/12/05 00:50:39;;;;;;;70.00;31.67;;;;;;;-2.28;100.00;93474.44;1037000;28;20461;-72
2020/12/05 00:51:12;;;;;;;71.63;31.25;;;;;;;-2.40;100.00;93455.72;1036911;28;20466;-74
2020/12/05 00:51:47;;;;;;;75.65;32.97;;;;;;;-2.32;100.00;93473.09;1037140;28;20017;-75
2020/12/05 00:52:21;;;;;;;70.32;32.50;;;;;;;-2.34;100.00;93475.84;1036937;28;20261;-74
2020/12/05 00:52:53;;;;;;;77.25;32.17;;;;;;;-2.46;100.00;93471.94;1036871;28;20349;-74
2020/12/05 00:53:24;;;;;;;71.55;32.08;;;;;;;-2.39;100.00;93479.91;1033104;28;20266;-75
2020/12/05 00:53:55;;;;;;;68.68;32.40;;;;;;;-2.34;100.00;93493.25;1045305;28;20259;-75
2020/12/05 00:54:25;;;;;;;78.20;33.72;;;;;;;-2.44;100.00;93497.75;1032944;28;20275;-75
2020/12/05 00:54:56;;;;;;;78.22;33.75;;;;;;;-2.60;100.00;93480.34;1036846;28;20133;-74
2020/12/05 00:55:27;;;;;;;83.03;34.50;;;;;;;-2.53;100.00;93499.50;1029122;28;20023;-75
2020/12/05 00:55:58;;;;;;;76.75;33.20;;;;;;;-2.59;100.00;93511.34;1029257;28;20025;-75
2020/12/05 00:56:29;;;;;;;70.72;31.45;;;;;;;-2.57;100.00;93512.00;1037423;28;20029;-74
2020/12/05 00:57:00;;;;;;;74.70;32.03;;;;;;;-2.61;100.00;93510.72;1029231;28;20030;-74
2020/12/05 00:57:30;;;;;;;72.43;31.88;;;;;;;-2.60;100.00;93517.50;1033213;28;20430;-74
2020/12/05 00:58:01;;;;;;;77.45;32.78;;;;;;;-2.59;100.00;93513.94;1032770;28;20145;-74
2020/12/05 00:58:34;;;;;;;82.80;33.30;;;;;;;-2.61;100.00;93510.72;1036490;28;20032;-72
2020/12/05 00:59:05;;;;;;;81.00;33.80;;;;;;;-2.60;100.00;93508.91;1027953;28;20471;-71
2020/12/05 00:59:36;;;;;;;78.68;33.55;;;;;;;-2.77;100.00;93484.66;1036090;28;20288;-71
2020/12/05 01:00:08;;;;;;;83.35;34.38;;;;;;;-2.57;100.00;93512.00;1028019;28;20028;-71
2020/12/05 01:00:39;;;;;;;83.82;35.85;;;;;;;-2.70;100.00;93488.25;1040113;28;20299;-73
2020/12/05 01:01:12;;;;;;;84.93;34.85;;;;;;;-2.58;100.00;93514.75;1027972;28;20494;-74
2020/12/05 01:01:42;;;;;;;78.40;33.17;;;;;;;-2.61;100.00;93510.72;1040148;28;20255;-74
2020/12/05 01:02:13;;;;;;;85.43;35.22;;;;;;;-2.59;100.00;93510.56;1036195;28;20649;-74
2020/12/05 01:02:46;;;;;;;79.15;34.00;;;;;;;-2.62;100.00;93524.66;1035861;28;20021;-74
2020/12/05 01:03:16;;;;;;;84.75;35.40;;;;;;;-2.66;100.00;93516.34;1032007;28;20054;-74
2020/12/05 01:03:47;;;;;;;81.72;34.22;;;;;;;-2.67;100.00;93516.50;1036093;28;20249;-73
2020/12/05 01:04:18;;;;;;;77.50;34.47;;;;;;;-2.62;100.00;93516.84;1032067;28;20050;-74
2020/12/05 01:04:50;;;;;;;83.35;35.53;;;;;;;-2.64;100.00;93513.59;1028013;28;20030;-73
2020/12/05 01:05:21;;;;;;;81.43;34.63;;;;;;;-2.68;100.00;93512.31;1036065;28;20014;-74
2020/12/05 01:05:52;;;;;;;88.15;36.90;;;;;;;-2.69;100.00;93508.06;1032045;28;20323;-74
2020/12/05 01:06:23;;;;;;;82.75;36.38;;;;;;;-2.70;100.00;93498.63;1040181;28;20017;-74
2020/12/05 01:06:53;;;;;;;85.32;36.13;;;;;;;-2.66;100.00;93505.97;1031927;28;20114;-74
2020/12/05 01:07:25;;;;;;;84.25;35.45;;;;;;;-2.67;100.00;93506.13;1042274;28;20014;-74
2020/12/05 01:07:56;;;;;;;84.88;35.80;;;;;;;-2.64;100.00;93505.00;1042200;28;20473;-74
2020/12/05 01:08:28;;;;;;;80.13;36.22;;;;;;;-2.62;100.00;93503.88;1030453;28;20305;-74
2020/12/05 01:08:58;;;;;;;83.10;35.83;;;;;;;-2.68;100.00;93512.31;1038872;28;20010;-73
2020/12/05 01:09:29;;;;;;;90.60;36.03;;;;;;;-2.68;100.00;93526.09;1034696;28;20264;-74
2020/12/05 01:10:00;;;;;;;93.28;37.13;;;;;;;-2.66;100.00;93529.34;1030215;28;20017;-74
2020/12/05 01:10:38;;;;;;;85.40;35.70;;;;;;;-2.70;100.00;93535.00;1030476;28;20034;-73
2020/12/05 01:11:12;;;;;;;82.40;33.45;;;;;;;-2.75;100.00;93521.66;1034005;28;20518;-73
2020/12/05 01:11:45;;;;;;;77.10;33.17;;;;;;;-2.68;100.00;93535.69;1034698;28;20256;-74
2020/12/05 01:12:15;;;;;;;78.53;33.15;;;;;;;-2.69;100.00;93521.06;1042990;28;20253;-74
2020/12/05 01:12:46;;;;;;;81.53;33.30;;;;;;;-2.63;100.00;93528.25;1038290;28;20257;-74
2020/12/05 01:13:17;;;;;;;74.45;33.03;;;;;;;-2.60;100.00;93530.50;1034807;28;20021;-74
2020/12/05 01:13:48;;;;;;;74.00;32.60;;;;;;;-2.62;100.00;93537.63;1046663;28;20040;-74
2020/12/05 01:14:18;;;;;;;74.75;33.65;;;;;;;-2.60;100.00;93537.50;1038474;28;20028;-74
2020/12/05 01:14:49;;;;;;;71.68;32.70;;;;;;;-2.60;100.00;93527.09;1046375;28;20055;-74
2020/12/05 01:15:20;;;;;;;70.75;33.10;;;;;;;-2.68;100.00;93525.28;1038698;28;20335;-74
2020/12/05 01:15:51;;;;;;;72.80;32.70;;;;;;;-2.64;100.00;93536.19;1046745;28;20255;-75
2020/12/05 01:16:23;;;;;;;77.07;32.97;;;;;;;-2.63;100.00;93538.63;1042869;28;20029;-74
2020/12/05 01:16:57;;;;;;;68.57;30.52;;;;;;;-2.63;100.00;93538.63;1030413;28;20091;-74
2020/12/05 01:17:28;;;;;;;70.68;31.13;;;;;;;-2.66;100.00;93533.75;1042593;28;20269;-74
2020/12/05 01:17:59;;;;;;;68.93;30.42;;;;;;;-2.55;100.00;93561.22;1030505;28;20274;-74
2020/12/05 01:18:30;;;;;;;68.97;31.42;;;;;;;-2.62;100.00;93555.03;1034175;28;20293;-74
2020/12/05 01:19:01;;;;;;;68.75;30.90;;;;;;;-2.69;100.00;93552.22;1033745;28;20019;-74
2020/12/05 01:19:32;;;;;;;74.50;31.02;;;;;;;-2.63;100.00;93559.41;1032630;28;20048;-73
2020/12/05 01:20:04;;;;;;;72.30;31.98;;;;;;;-2.60;100.00;93559.06;1041229;28;20318;-74
2020/12/05 01:20:35;;;;;;;69.35;30.92;;;;;;;-2.66;100.00;93564.91;1044338;28;20021;-73
2020/12/05 01:21:09;;;;;;;72.75;32.05;;;;;;;-2.69;100.00;93565.22;1036132;28;20320;-74
2020/12/05 01:21:40;;;;;;;72.38;31.92;;;;;;;-2.83;100.00;93547.63;1036128;28;20049;-74
2020/12/05 01:22:11;;;;;;;70.55;33.05;;;;;;;-2.63;100.00;93579.34;1040155;28;20256;-74
2020/12/05 01:22:41;;;;;;;75.95;32.45;;;;;;;-2.66;100.00;93575.28;1036028;28;20690;-73
2020/12/05 01:23:12;;;;;;;64.00;29.63;;;;;;;-2.63;100.00;93579.34;1040066;28;20417;-73
2020/12/05 01:23:43;;;;;;;67.57;29.75;;;;;;;-2.62;100.00;93576.59;1035963;28;20089;-73
2020/12/05 01:24:14;;;;;;;71.30;31.50;;;;;;;-2.63;100.00;93575.00;1031959;28;20058;-74
2020/12/05 01:24:44;;;;;;;65.25;29.23;;;;;;;-2.60;100.00;93579.84;1031904;28;20586;-74
2020/12/05 01:25:15;;;;;;;65.85;29.80;;;;;;;-2.58;100.00;93577.09;1036004;28;20498;-73
2020/12/05 01:25:46;;;;;;;73.32;30.92;;;;;;;-2.61;100.00;93582.59;1036073;28;20021;-74
2020/12/05 01:26:25;;;;;;;68.38;31.17;;;;;;;-2.64;100.00;93582.94;1032022;28;20006;-74
2020/12/05 01:26:56;;;;;;;69.00;30.40;;;;;;;-2.66;100.00;93585.69;1035867;28;20014;-73
2020/12/05 01:27:27;;;;;;;77.28;30.85;;;;;;;-2.66;100.00;93568.31;1035940;28;20018;-74
2020/12/05 01:27:57;;;;;;;67.60;31.27;;;;;;;-2.66;100.00;93562.31;1036069;28;20014;-74
2020/12/05 01:28:28;;;;;;;69.00;30.80;;;;;;;-2.62;100.00;93561.03;1036048;28;20356;-74
2020/12/05 01:28:59;;;;;;;64.53;29.90;;;;;;;-2.63;100.00;93562.00;1023896;28;20106;-74
2020/12/05 01:29:30;;;;;;;68.40;30.60;;;;;;;-2.66;100.00;93565.72;1036305;28;20741;-74
2020/12/05 01:30:01;;;;;;;72.57;30.85;;;;;;;-2.67;100.00;93564.06;1040395;28;20022;-74
2020/12/05 01:30:32;;;;;;;72.03;31.75;;;;;;;-2.69;100.00;93560.81;1027985;28;20455;-74
2020/12/05 01:31:04;;;;;;;70.32;30.08;;;;;;;-2.67;100.00;93558.88;1039794;28;20436;-74
2020/12/05 01:31:34;;;;;;;67.10;31.05;;;;;;;-2.66;100.00;93560.53;1032002;28;20337;-74
2020/12/05 01:32:05;;;;;;;63.15;29.65;;;;;;;-2.66;100.00;93563.13;1036073;28;20579;-74
2020/12/05 01:32:37;;;;;;;69.07;30.15;;;;;;;-2.67;100.00;93563.25;1035911;28;20021;-73
2020/12/05 01:33:08;;;;;;;63.65;29.80;;;;;;;-2.71;100.00;93560.16;1040059;28;20256;-74
2020/12/05 01:33:39;;;;;;;71.30;29.65;;;;;;;-2.67;100.00;93564.06;1035996;28;20691;-74
2020/12/05 01:34:09;;;;;;;69.25;29.83;;;;;;;-2.71;100.00;93562.75;1044122;28;20104;-74
2020/12/05 01:34:40;;;;;;;67.07;31.23;;;;;;;-2.67;100.00;93564.06;1044035;28;20013;-73
2020/12/05 01:35:11;;;;;;;65.85;31.27;;;;;;;-2.76;100.00;93562.41;1031938;28;20018;-73
2020/12/05 01:35:42;;;;;;;60.10;28.08;;;;;;;-2.74;100.00;93575.25;1040110;28;20028;-74
2020/12/05 01:36:13;;;;;;;69.88;29.85;;;;;;;-2.75;100.00;93589.19;1035971;28;20508;-74
2020/12/05 01:36:44;;;;;;;70.85;30.58;;;;;;;-2.73;100.00;93595.06;1035969;28;20013;-73
2020/12/05 01:37:16;;;;;;;69.88;30.38;;;;;;;-2.71;100.00;93600.91;1027881;28;20035;-73
2020/12/05 01:37:46;;;;;;;68.57;29.92;;;;;;;-2.79;100.00;93598.25;1036033;28;20241;-74
2020/12/05 01:38:17;;;;;;;66.45;28.23;;;;;;;-2.89;100.00;93591.41;1031867;28;20707;-74
2020/12/05 01:38:48;;;;;;;61.95;28.67;;;;;;;-2.89;100.00;93578.41;1036004;28;20017;-74
2020/12/05 01:39:19;;;;;;;68.95;30.77;;;;;;;-2.78;100.00;93579.13;1035969;28;20021;-74
2020/12/05 01:39:49;;;;;;;72.07;31.60;;;;;;;-2.77;100.00;93573.78;1035985;28;20511;-74
2020/12/05 01:40:20;;;;;;;71.82;29.65;;;;;;;-2.87;100.00;93563.50;1027902;28;20102;-74
2020/12/05 01:40:53;;;;;;;70.05;30.25;;;;;;;-2.88;100.00;93572.25;1035683;28;20083;-73
2020/12/05 01:41:23;;;;;;;68.05;31.83;;;;;;;-2.81;100.00;93576.84;1040155;28;20469;-74
2020/12/05 01:41:54;;;;;;;65.28;30.30;;;;;;;-2.86;100.00;93585.91;1027941;28;20262;-74
2020/12/05 01:42:25;;;;;;;72.78;30.90;;;;;;;-2.83;100.00;93583.97;1031995;28;20553;-74
2020/12/05 01:42:56;;;;;;;68.25;30.45;;;;;;;-2.99;100.00;93558.72;1040014;28;20021;-73
2020/12/05 01:43:27;;;;;;;69.22;31.05;;;;;;;-3.12;100.00;93549.53;1040091;28;20532;-73
2020/12/05 01:43:58;;;;;;;71.40;28.92;;;;;;;-2.92;100.00;93585.69;1028096;28;20054;-74
2020/12/05 01:44:31;;;;;;;68.38;30.52;;;;;;;-2.88;100.00;93587.00;1027842;28;20683;-73
2020/12/05 01:45:02;;;;;;;68.20;29.75;;;;;;;-3.05;100.00;93557.53;1039735;28;20108;-73
2020/12/05 01:45:33;;;;;;;71.45;30.30;;;;;;;-2.85;100.00;93589.31;1040086;28;20260;-73
2020/12/05 01:46:04;;;;;;;71.85;30.40;;;;;;;-2.88;100.00;93593.00;1040112;28;20776;-74
2020/12/05 01:46:42;;;;;;;72.60;29.80;;;;;;;-2.86;100.00;93585.91;1044178;28;20478;-74
2020/12/05 01:47:13;;;;;;;66.05;31.08;;;;;;;-2.85;100.00;93592.72;1031921;28;20265;-74
2020/12/05 01:47:44;;;;;;;69.18;30.52;;;;;;;-2.82;100.00;93595.97;1031742;28;20292;-73
2020/12/05 01:48:16;;;;;;;69.22;30.45;;;;;;;-2.83;100.00;93602.94;1036014;28;20257;-74
2020/12/05 01:48:47;;;;;;;66.25;29.83;;;;;;;-2.84;100.00;93601.31;1031835;28;20220;-74
2020/12/05 01:49:18;;;;;;;65.68;29.48;;;;;;;-2.96;100.00;93598.19;1035900;28;20260;-73
2020/12/05 01:49:49;;;;;;;65.25;28.85;;;;;;;-2.93;100.00;93597.84;1027837;28;20118;-74
2020/12/05 01:50:20;;;;;;;67.82;30.30;;;;;;;-2.96;100.00;93592.16;1036034;28;20253;-74
2020/12/05 01:50:52;;;;;;;78.20;31.60;;;;;;;-2.98;100.00;93570.72;1027535;28;20030;-73
2020/12/05 01:51:22;;;;;;;76.55;32.13;;;;;;;-2.93;100.00;93597.03;1039972;28;20025;-74
2020/12/05 01:51:54;;;;;;;66.72;29.83;;;;;;;-2.93;100.00;93600.44;1023950;29;20723;-74
2020/12/05 01:52:24;;;;;;;78.65;34.17;;;;;;;-2.96;100.00;93616.34;1032013;28;20110;-74
2020/12/05 01:52:55;;;;;;;76.30;34.22;;;;;;;-2.95;100.00;93620.56;1035760;28;20685;-73
2020/12/05 01:53:26;;;;;;;73.57;32.28;;;;;;;-2.91;100.00;93618.47;1035936;28;20080;-74
2020/12/05 01:53:57;;;;;;;70.72;30.55;;;;;;;-2.91;100.00;93616.72;1036030;28;20105;-74
2020/12/05 01:54:28;;;;;;;71.72;32.25;;;;;;;-2.89;100.00;93604.38;1027912;28;20031;-74
2020/12/05 01:54:59;;;;;;;70.28;29.67;;;;;;;-2.88;100.00;93585.22;1035826;28;20033;-74
2020/12/05 01:55:30;;;;;;;69.88;31.23;;;;;;;-2.93;100.00;93584.88;1031910;28;20754;-73
2020/12/05 01:56:00;;;;;;;72.70;31.20;;;;;;;-2.93;100.00;93591.84;1031877;28;20026;-73
2020/12/05 01:56:31;;;;;;;67.15;30.13;;;;;;;-2.93;100.00;93591.84;1036025;28;20028;-74
2020/12/05 01:57:03;;;;;;;73.35;31.05;;;;;;;-2.92;100.00;93598.69;1027755;28;20114;-73
2020/12/05 01:57:34;;;;;;;67.22;30.40;;;;;;;-2.98;100.00;93597.50;1032060;28;20471;-74
2020/12/05 01:58:05;;;;;;;65.32;28.58;;;;;;;-2.97;100.00;93593.13;1031947;28;20277;-74
2020/12/05 01:58:36;;;;;;;66.43;30.08;;;;;;;-2.93;100.00;93584.88;1040004;28;20025;-73
2020/12/05 01:59:06;;;;;;;70.32;29.25;;;;;;;-2.93;100.00;93591.84;1031907;28;20433;-74
2020/12/05 01:59:37;;;;;;;77.90;34.00;;;;;;;-2.96;100.00;93587.78;1035991;28;20037;-74
2020/12/05 02:00:08;;;;;;;74.47;31.13;;;;;;;-2.93;100.00;93597.84;1040205;28;20108;-74
2020/12/05 02:00:39;;;;;;;77.95;32.05;;;;;;;-2.93;100.00;93599.63;1027878;28;20430;-74
2020/12/05 02:01:10;;;;;;;78.07;31.50;;;;;;;-2.98;100.00;93617.44;1039960;28;20498;-73
2020/12/05 02:01:40;;;;;;;75.43;31.85;;;;;;;-2.97;100.00;93621.69;1036133;28;20463;-74
2020/12/05 02:02:11;;;;;;;70.53;31.20;;;;;;;-2.94;100.00;93622.19;1036041;28;20014;-74
2020/12/05 02:02:42;;;;;;;72.10;31.92;;;;;;;-2.98;100.00;93618.25;1039797;28;20026;-74
2020/12/05 02:03:21;;;;;;;68.47;31.75;;;;;;;-2.91;100.00;93628.84;1031977;28;20114;-74
2020/12/05 02:04:01;;;;;;;72.22;30.48;;;;;;;-2.95;100.00;93625.75;1031964;28;20103;-74
2020/12/05 02:04:51;;;;;;;68.15;28.13;;;;;;;-2.89;100.00;93639.91;1031896;28;20407;-73
2020/12/05 02:05:31;;;;;;;71.10;28.90;;;;;;;-2.91;100.00;93634.88;1039964;28;20252;-74
2020/12/05 02:06:13;;;;;;;71.30;28.63;;;;;;;-2.96;100.00;93634.53;1027918;28;20322;-74
2020/12/05 02:06:54;;;;;;;69.63;28.63;;;;;;;-2.97;100.00;93650.25;1031570;28;20262;-74
2020/12/05 02:07:44;;;;;;;67.68;27.83;;;;;;;-3.06;100.00;93646.78;1035910;28;20713;-74
2020/12/05 02:08:17;;;;;;;59.60;26.38;;;;;;;-3.09;100.00;93652.25;1031819;28;20292;-74
2020/12/05 02:08:54;;;;;;;67.43;27.67;;;;;;;-3.12;100.00;93657.75;1035816;28;20724;-74
2020/12/05 02:09:26;;;;;;;64.63;27.98;;;;;;;-3.11;100.00;93661.97;1039810;28;20287;-74
2020/12/05 02:09:57;;;;;;;69.97;29.67;;;;;;;-3.12;100.00;93644.78;1027763;28;20338;-74
2020/12/05 02:10:28;;;;;;;73.13;31.05;;;;;;;-3.36;100.00;93616.84;1035953;28;20647;-74
2020/12/05 02:10:59;;;;;;;71.97;30.83;;;;;;;-3.12;100.00;93647.38;1027656;28;20098;-73
2020/12/05 02:11:35;;;;;;;71.65;30.00;;;;;;;-3.22;100.00;93643.09;1031337;28;20645;-73
2020/12/05 02:12:21;;;;;;;70.68;30.65;;;;;;;-3.10;100.00;93661.00;1040158;28;20462;-74
2020/12/05 02:13:03;;;;;;;70.97;30.35;;;;;;;-3.15;100.00;93650.25;1035571;28;20259;-73
2020/12/05 02:13:36;;;;;;;75.13;31.15;;;;;;;-3.09;100.00;93662.66;1027784;28;20337;-74
2020/12/05 02:14:10;;;;;;;72.15;30.85;;;;;;;-3.06;100.00;93664.94;1043997;28;20240;-74
2020/12/05 02:14:41;;;;;;;65.78;30.13;;;;;;;-3.16;100.00;93649.44;1031722;28;20249;-73
2020/12/05 02:15:14;;;;;;;70.85;30.67;;;;;;;-3.06;100.00;93659.75;1031782;28;20266;-74
2020/12/05 02:15:45;;;;;;;71.60;31.08;;;;;;;-3.06;100.00;93662.34;1035854;28;20257;-74
2020/12/05 02:16:16;;;;;;;67.78;31.30;;;;;;;-3.03;100.00;93672.41;1027812;28;20278;-74
2020/12/05 02:16:48;;;;;;;67.43;29.58;;;;;;;-3.03;100.00;93667.22;1027642;28;20706;-73
2020/12/05 02:17:19;;;;;;;71.50;30.40;;;;;;;-3.06;100.00;93672.75;1035867;28;20402;-74
2020/12/05 02:18:00;;;;;;;70.88;29.92;;;;;;;-3.05;100.00;93690.75;1031816;28;20285;-73
2020/12/05 02:18:31;;;;;;;66.72;30.15;;;;;;;-3.06;100.00;93693.50;1023708;28;20542;-73
2020/12/05 02:19:02;;;;;;;69.65;29.15;;;;;;;-3.08;100.00;93695.44;1035683;28;20754;-74
2020/12/05 02:19:47;;;;;;;70.55;30.52;;;;;;;-3.12;100.00;93707.06;1023812;29;20294;-74
2020/12/05 02:20:18;;;;;;;69.85;29.05;;;;;;;-3.12;100.00;93715.66;1031768;28;20345;-74
2020/12/05 02:20:49;;;;;;;73.93;30.30;;;;;;;-3.12;100.00;93712.25;1027609;28;20753;-73
2020/12/05 02:21:21;;;;;;;69.07;29.60;;;;;;;-3.12;100.00;93720.03;1032016;28;20261;-74
2020/12/05 02:21:53;;;;;;;77.40;30.88;;;;;;;-3.18;100.00;93720.66;1027876;28;20507;-74
2020/12/05 02:22:27;;;;;;;69.43;28.50;;;;;;;-3.13;100.00;93719.22;1031798;28;20245;-74
2020/12/05 02:23:09;;;;;;;71.05;29.15;;;;;;;-3.11;100.00;93708.72;1031609;28;20269;-74
2020/12/05 02:23:39;;;;;;;75.25;31.33;;;;;;;-3.07;100.00;93707.44;1023860;29;20258;-74
2020/12/05 02:24:10;;;;;;;69.28;29.40;;;;;;;-3.04;100.00;93707.16;1035859;28;20260;-74
2020/12/05 02:24:41;;;;;;;70.75;30.08;;;;;;;-3.06;100.00;93699.50;1035790;28;20371;-73